sensor_id;sensor_type;location;lat;lon;timestamp;pressure;altitude;pressure_sealevel;temperature;humidity
47366;BME280;33105;47.964;7.982;2022-12-07T00:02:53;96815.91;;;1.56;95.14
47366;BME280;33105;47.964;7.982;2022-12-07T00:05:57;96805.75;;;1.45;94.95
47366;BME280;33105;47.964;7.982;2022-12-07T00:08:59;96810.31;;;1.51;95.67
47366;BME280;33105;47.964;7.982;2022-12-07T00:12:00;96806.97;;;1.35;94.76
47366;BME280;33105;47.964;7.982;2022-12-07T00:15:02;96808.66;;;1.43;95.70
47366;BME280;33105;47.964;7.982;2022-12-07T00:18:04;96801.81;;;1.54;95.84
47366;BME280;33105;47.964;7.982;2022-12-07T00:21:11;96807.00;;;1.55;95.20
47366;BME280;33105;47.964;7.982;2022-12-07T00:24:13;96798.72;;;1.44;95.45
47366;BME280;33105;47.964;7.982;2022-12-07T00:27:14;96797.44;;;1.40;95.74
47366;BME280;33105;47.964;7.982;2022-12-07T00:30:16;96801.78;;;1.34;96.66
47366;BME280;33105;47.964;7.982;2022-12-07T00:33:17;96798.00;;;1.15;97.09
47366;BME280;33105;47.964;7.982;2022-12-07T00:36:21;96786.25;;;1.29;96.86
47366;BME280;33105;47.964;7.982;2022-12-07T00:39:22;96785.44;;;1.35;96.85
47366;BME280;33105;47.964;7.982;2022-12-07T00:42:24;96782.53;;;1.37;95.86
47366;BME280;33105;47.964;7.982;2022-12-07T00:45:27;96783.75;;;1.28;96.27
47366;BME280;33105;47.964;7.982;2022-12-07T00:48:37;96779.19;;;1.22;97.26
47366;BME280;33105;47.964;7.982;2022-12-07T00:51:38;96779.03;;;1.36;96.07
47366;BME280;33105;47.964;7.982;2022-12-07T00:54:40;96767.41;;;1.29;95.21
47366;BME280;33105;47.964;7.982;2022-12-07T00:57:41;96775.91;;;1.40;95.72
47366;BME280;33105;47.964;7.982;2022-12-07T01:00:43;96772.41;;;1.46;96.07
47366;BME280;33105;47.964;7.982;2022-12-07T01:03:44;96776.97;;;1.45;95.63
47366;BME280;33105;47.964;7.982;2022-12-07T01:06:46;96772.00;;;1.55;95.76
47366;BME280;33105;47.964;7.982;2022-12-07T01:09:47;96769.31;;;1.55;95.35
47366;BME280;33105;47.964;7.982;2022-12-07T01:12:48;96773.03;;;1.54;96.38
47366;BME280;33105;47.964;7.982;2022-12-07T01:15:49;96776.31;;;1.36;95.26
47366;BME280;33105;47.964;7.982;2022-12-07T01:18:52;96777.13;;;1.30;95.63
47366;BME280;33105;47.964;7.982;2022-12-07T01:21:54;96771.56;;;1.39;96.16
47366;BME280;33105;47.964;7.982;2022-12-07T01:24:55;96776.56;;;1.42;95.39
47366;BME280;33105;47.964;7.982;2022-12-07T01:27:56;96782.16;;;1.47;95.85
47366;BME280;33105;47.964;7.982;2022-12-07T01:31:00;96781.97;;;1.48;95.65
47366;BME280;33105;47.964;7.982;2022-12-07T01:34:01;96780.72;;;1.57;95.97
47366;BME280;33105;47.964;7.982;2022-12-07T01:37:03;96781.97;;;1.61;96.00
47366;BME280;33105;47.964;7.982;2022-12-07T01:40:06;96779.03;;;1.56;95.56
47366;BME280;33105;47.964;7.982;2022-12-07T01:43:18;96786.09;;;1.64;95.34
47366;BME280;33105;47.964;7.982;2022-12-07T01:46:20;96785.69;;;1.60;95.34
47366;BME280;33105;47.964;7.982;2022-12-07T01:49:37;96784.66;;;1.61;95.87
47366;BME280;33105;47.964;7.982;2022-12-07T01:52:39;96786.75;;;1.66;95.28
47366;BME280;33105;47.964;7.982;2022-12-07T01:55:44;96788.81;;;1.64;95.46
47366;BME280;33105;47.964;7.982;2022-12-07T01:58:49;96795.03;;;1.64;95.22
47366;BME280;33105;47.964;7.982;2022-12-07T02:01:54;96793.16;;;1.65;95.92
47366;BME280;33105;47.964;7.982;2022-12-07T02:04:57;96792.31;;;1.64;95.34
47366;BME280;33105;47.964;7.982;2022-12-07T02:08:00;96791.09;;;1.67;95.55
47366;BME280;33105;47.964;7.982;2022-12-07T02:11:04;96789.63;;;1.64;94.99
47366;BME280;33105;47.964;7.982;2022-12-07T02:14:08;96788.81;;;1.70;94.88
47366;BME280;33105;47.964;7.982;2022-12-07T02:17:25;96787.78;;;1.65;95.41
47366;BME280;33105;47.964;7.982;2022-12-07T02:21:11;96797.09;;;1.62;95.36
47366;BME280;33105;47.964;7.982;2022-12-07T02:24:25;96793.38;;;1.70;95.07
47366;BME280;33105;47.964;7.982;2022-12-07T02:27:50;96795.84;;;1.65;95.51
47366;BME280;33105;47.964;7.982;2022-12-07T02:30:56;96788.75;;;1.51;95.02
47366;BME280;33105;47.964;7.982;2022-12-07T02:34:07;96785.47;;;1.62;95.74
47366;BME280;33105;47.964;7.982;2022-12-07T02:37:21;96787.97;;;1.63;95.39
47366;BME280;33105;47.964;7.982;2022-12-07T02:44:00;96784.63;;;1.55;95.22
47366;BME280;33105;47.964;7.982;2022-12-07T02:47:05;96780.31;;;1.67;96.18
47366;BME280;33105;47.964;7.982;2022-12-07T02:50:27;96786.72;;;1.59;95.77
47366;BME280;33105;47.964;7.982;2022-12-07T03:00:05;96789.41;;;1.59;95.64
47366;BME280;33105;47.964;7.982;2022-12-07T03:03:13;96788.75;;;1.51;95.95
47366;BME280;33105;47.964;7.982;2022-12-07T03:06:31;96782.97;;;1.54;96.30
47366;BME280;33105;47.964;7.982;2022-12-07T03:09:46;96785.88;;;1.59;96.64
47366;BME280;33105;47.964;7.982;2022-12-07T03:19:16;96791.06;;;1.60;96.76
47366;BME280;33105;47.964;7.982;2022-12-07T03:22:19;96795.41;;;1.61;96.95
47366;BME280;33105;47.964;7.982;2022-12-07T03:25:22;96789.41;;;1.59;96.66
47366;BME280;33105;47.964;7.982;2022-12-07T03:28:27;96790.03;;;1.55;96.23
47366;BME280;33105;47.964;7.982;2022-12-07T03:31:37;96787.72;;;1.52;97.04
47366;BME280;33105;47.964;7.982;2022-12-07T03:34:49;96790.00;;;1.42;97.58
47366;BME280;33105;47.964;7.982;2022-12-07T03:37:57;96785.84;;;1.32;98.41
47366;BME280;33105;47.964;7.982;2022-12-07T03:41:38;96783.94;;;1.26;98.15
47366;BME280;33105;47.964;7.982;2022-12-07T03:44:42;96776.94;;;1.39;98.51
47366;BME280;33105;47.964;7.982;2022-12-07T03:48:03;96776.56;;;1.42;98.14
47366;BME280;33105;47.964;7.982;2022-12-07T03:51:30;96772.78;;;1.29;98.94
47366;BME280;33105;47.964;7.982;2022-12-07T03:54:40;96771.16;;;1.42;98.44
47366;BME280;33105;47.964;7.982;2022-12-07T03:57:45;96768.69;;;1.40;98.32
47366;BME280;33105;47.964;7.982;2022-12-07T04:00:49;96779.19;;;1.22;98.83
47366;BME280;33105;47.964;7.982;2022-12-07T04:03:51;96776.88;;;1.12;99.26
47366;BME280;33105;47.964;7.982;2022-12-07T04:06:53;96780.03;;;1.22;99.72
47366;BME280;33105;47.964;7.982;2022-12-07T04:09:54;96773.78;;;1.15;99.86
47366;BME280;33105;47.964;7.982;2022-12-07T04:12:58;96774.41;;;1.24;100.00
47366;BME280;33105;47.964;7.982;2022-12-07T04:16:00;96768.81;;;1.12;99.38
47366;BME280;33105;47.964;7.982;2022-12-07T04:19:01;96763.19;;;1.07;100.00
47366;BME280;33105;47.964;7.982;2022-12-07T04:22:06;96759.31;;;1.16;99.28
47366;BME280;33105;47.964;7.982;2022-12-07T04:25:07;96762.22;;;1.28;99.04
47366;BME280;33105;47.964;7.982;2022-12-07T04:28:09;96768.84;;;1.32;99.09
47366;BME280;33105;47.964;7.982;2022-12-07T04:31:10;96769.47;;;1.34;98.52
47366;BME280;33105;47.964;7.982;2022-12-07T04:34:12;96769.91;;;1.38;98.23
47366;BME280;33105;47.964;7.982;2022-12-07T04:37:14;96764.94;;;1.34;97.38
47366;BME280;33105;47.964;7.982;2022-12-07T04:40:16;96758.50;;;1.29;97.89
47366;BME280;33105;47.964;7.982;2022-12-07T04:43:17;96760.59;;;1.33;97.67
47366;BME280;33105;47.964;7.982;2022-12-07T04:46:18;96758.91;;;1.19;97.57
47366;BME280;33105;47.964;7.982;2022-12-07T04:49:20;96770.94;;;1.23;98.25
47366;BME280;33105;47.964;7.982;2022-12-07T04:52:22;96764.72;;;1.29;97.96
47366;BME280;33105;47.964;7.982;2022-12-07T04:55:23;96770.50;;;1.20;97.85
47366;BME280;33105;47.964;7.982;2022-12-07T04:58:24;96774.03;;;1.20;96.92
47366;BME280;33105;47.964;7.982;2022-12-07T05:01:26;96771.53;;;1.19;97.08
47366;BME280;33105;47.964;7.982;2022-12-07T05:04:27;96773.78;;;1.15;98.04
47366;BME280;33105;47.964;7.982;2022-12-07T05:07:28;96771.72;;;1.17;97.47
47366;BME280;33105;47.964;7.982;2022-12-07T05:10:30;96770.03;;;1.10;98.30
47366;BME280;33105;47.964;7.982;2022-12-07T05:13:34;96766.72;;;1.08;98.33
47366;BME280;33105;47.964;7.982;2022-12-07T05:16:36;96778.78;;;1.18;97.90
47366;BME280;33105;47.964;7.982;2022-12-07T05:19:37;96771.13;;;1.22;97.56
47366;BME280;33105;47.964;7.982;2022-12-07T05:22:38;96769.69;;;1.32;97.96
47366;BME280;33105;47.964;7.982;2022-12-07T05:25:40;96766.16;;;1.32;97.89
47366;BME280;33105;47.964;7.982;2022-12-07T05:28:41;96765.53;;;1.23;96.85
47366;BME280;33105;47.964;7.982;2022-12-07T05:31:43;96760.94;;;1.11;96.73
47366;BME280;33105;47.964;7.982;2022-12-07T05:34:45;96759.50;;;1.15;97.37
47366;BME280;33105;47.964;7.982;2022-12-07T05:37:49;96761.78;;;1.11;96.66
47366;BME280;33105;47.964;7.982;2022-12-07T05:40:51;96762.44;;;1.20;97.48
47366;BME280;33105;47.964;7.982;2022-12-07T05:43:52;96763.03;;;1.28;97.34
47366;BME280;33105;47.964;7.982;2022-12-07T05:46:53;96761.19;;;1.29;96.98
47366;BME280;33105;47.964;7.982;2022-12-07T05:49:55;96758.06;;;1.25;96.92
47366;BME280;33105;47.964;7.982;2022-12-07T05:52:56;96765.09;;;1.26;97.51
47366;BME280;33105;47.964;7.982;2022-12-07T05:55:57;96760.56;;;1.20;96.60
47366;BME280;33105;47.964;7.982;2022-12-07T05:59:01;96758.06;;;1.25;96.36
47366;BME280;33105;47.964;7.982;2022-12-07T06:02:31;96762.63;;;1.18;96.67
47366;BME280;33105;47.964;7.982;2022-12-07T06:05:45;96763.84;;;1.16;97.03
47366;BME280;33105;47.964;7.982;2022-12-07T06:09:38;96767.56;;;1.08;97.04
47366;BME280;33105;47.964;7.982;2022-12-07T06:13:03;96765.06;;;1.07;97.08
47366;BME280;33105;47.964;7.982;2022-12-07T06:16:50;96758.84;;;1.06;97.62
47366;BME280;33105;47.964;7.982;2022-12-07T06:20:34;96757.88;;;0.66;96.50
47366;BME280;33105;47.964;7.982;2022-12-07T06:23:52;96768.41;;;0.61;97.40
47366;BME280;33105;47.964;7.982;2022-12-07T06:27:13;96760.81;;;0.71;98.19
47366;BME280;33105;47.964;7.982;2022-12-07T06:34:24;96770.59;;;0.51;96.90
47366;BME280;33105;47.964;7.982;2022-12-07T06:37:38;96773.00;;;0.32;97.23
47366;BME280;33105;47.964;7.982;2022-12-07T06:40:54;96773.34;;;0.23;97.06
47366;BME280;33105;47.964;7.982;2022-12-07T06:43:56;96770.31;;;0.05;97.06
47366;BME280;33105;47.964;7.982;2022-12-07T06:46:58;96766.38;;;0.00;97.33
47366;BME280;33105;47.964;7.982;2022-12-07T06:50:00;96768.19;;;-0.07;97.58
47366;BME280;33105;47.964;7.982;2022-12-07T06:53:05;96769.69;;;-0.25;98.28
47366;BME280;33105;47.964;7.982;2022-12-07T06:56:07;96778.72;;;-0.33;98.31
47366;BME280;33105;47.964;7.982;2022-12-07T06:59:08;96778.03;;;-0.14;98.62
47366;BME280;33105;47.964;7.982;2022-12-07T07:02:09;96770.81;;;-0.13;97.74
47366;BME280;33105;47.964;7.982;2022-12-07T07:05:11;96763.00;;;-0.08;98.61
47366;BME280;33105;47.964;7.982;2022-12-07T07:08:12;96767.97;;;-0.33;97.37
47366;BME280;33105;47.964;7.982;2022-12-07T07:11:14;96763.88;;;-0.29;96.96
47366;BME280;33105;47.964;7.982;2022-12-07T07:14:15;96773.00;;;-0.23;97.79
47366;BME280;33105;47.964;7.982;2022-12-07T07:17:19;96777.53;;;-0.24;97.41
47366;BME280;33105;47.964;7.982;2022-12-07T07:20:21;96769.34;;;-0.16;98.20
47366;BME280;33105;47.964;7.982;2022-12-07T07:23:23;96781.38;;;-0.12;97.81
47366;BME280;33105;47.964;7.982;2022-12-07T07:26:24;96772.63;;;-0.20;97.42
47366;BME280;33105;47.964;7.982;2022-12-07T07:29:26;96786.22;;;-0.22;97.13
47366;BME280;33105;47.964;7.982;2022-12-07T07:32:27;96786.00;;;-0.27;97.75
47366;BME280;33105;47.964;7.982;2022-12-07T07:35:29;96794.09;;;-0.42;96.67
47366;BME280;33105;47.964;7.982;2022-12-07T07:38:31;96795.03;;;-0.56;96.29
47366;BME280;33105;47.964;7.982;2022-12-07T07:41:32;96804.00;;;-0.63;97.37
47366;BME280;33105;47.964;7.982;2022-12-07T07:44:34;96804.53;;;-0.53;97.38
47366;BME280;33105;47.964;7.982;2022-12-07T07:47:36;96805.31;;;-0.59;96.93
47366;BME280;33105;47.964;7.982;2022-12-07T07:50:37;96806.63;;;-0.70;96.36
47366;BME280;33105;47.964;7.982;2022-12-07T07:53:38;96815.13;;;-0.66;97.64
47366;BME280;33105;47.964;7.982;2022-12-07T07:56:39;96821.78;;;-0.62;97.61
47366;BME280;33105;47.964;7.982;2022-12-07T07:59:40;96823.16;;;-0.66;97.15
47366;BME280;33105;47.964;7.982;2022-12-07T08:02:43;96819.84;;;-0.69;97.64
47366;BME280;33105;47.964;7.982;2022-12-07T08:05:44;96826.88;;;-0.68;97.46
47366;BME280;33105;47.964;7.982;2022-12-07T08:08:45;96823.81;;;-0.64;97.07
47366;BME280;33105;47.964;7.982;2022-12-07T08:11:47;96826.53;;;-1.15;97.46
47366;BME280;33105;47.964;7.982;2022-12-07T08:14:48;96833.63;;;-1.22;97.94
47366;BME280;33105;47.964;7.982;2022-12-07T08:17:49;96836.06;;;-1.27;97.44
47366;BME280;33105;47.964;7.982;2022-12-07T08:20:51;96835.13;;;-1.20;97.70
47366;BME280;33105;47.964;7.982;2022-12-07T08:23:52;96839.16;;;-0.94;97.76
47366;BME280;33105;47.964;7.982;2022-12-07T08:26:53;96845.50;;;-0.81;97.72
47366;BME280;33105;47.964;7.982;2022-12-07T08:29:54;96838.97;;;-0.57;98.10
47366;BME280;33105;47.964;7.982;2022-12-07T08:32:56;96840.06;;;-0.51;96.91
47366;BME280;33105;47.964;7.982;2022-12-07T08:36:06;96835.19;;;-0.41;96.82
47366;BME280;33105;47.964;7.982;2022-12-07T08:39:08;96841.72;;;-0.29;96.72
47366;BME280;33105;47.964;7.982;2022-12-07T08:42:09;96835.44;;;-0.15;96.48
47366;BME280;33105;47.964;7.982;2022-12-07T08:45:13;96838.78;;;-0.13;96.08
47366;BME280;33105;47.964;7.982;2022-12-07T08:48:15;96834.34;;;0.01;95.68
47366;BME280;33105;47.964;7.982;2022-12-07T08:51:19;96838.81;;;0.15;95.73
47366;BME280;33105;47.964;7.982;2022-12-07T08:54:25;96824.00;;;0.26;95.13
47366;BME280;33105;47.964;7.982;2022-12-07T08:57:37;96828.06;;;0.43;95.00
47366;BME280;33105;47.964;7.982;2022-12-07T09:00:39;96833.59;;;0.70;94.15
47366;BME280;33105;47.964;7.982;2022-12-07T09:03:41;96833.41;;;0.71;93.18
47366;BME280;33105;47.964;7.982;2022-12-07T09:07:21;96825.34;;;0.71;92.59
47366;BME280;33105;47.964;7.982;2022-12-07T09:10:29;96832.88;;;0.89;92.62
47366;BME280;33105;47.964;7.982;2022-12-07T09:14:01;96828.31;;;0.89;92.14
47366;BME280;33105;47.964;7.982;2022-12-07T09:17:07;96828.75;;;0.99;93.07
47366;BME280;33105;47.964;7.982;2022-12-07T09:20:28;96829.59;;;1.00;90.23
47366;BME280;33105;47.964;7.982;2022-12-07T09:24:42;96826.75;;;1.08;91.21
47366;BME280;33105;47.964;7.982;2022-12-07T09:29:01;96836.03;;;1.06;92.30
47366;BME280;33105;47.964;7.982;2022-12-07T09:32:06;96835.84;;;1.07;92.74
47366;BME280;33105;47.964;7.982;2022-12-07T09:41:29;96829.47;;;1.15;91.79
47366;BME280;33105;47.964;7.982;2022-12-07T09:49:31;96815.84;;;1.23;90.65
47366;BME280;33105;47.964;7.982;2022-12-07T09:53:25;96816.47;;;1.31;90.40
47366;BME280;33105;47.964;7.982;2022-12-07T09:56:55;96809.22;;;1.32;87.88
47366;BME280;33105;47.964;7.982;2022-12-07T10:04:40;96807.22;;;1.54;88.36
47366;BME280;33105;47.964;7.982;2022-12-07T10:12:09;96806.41;;;1.66;85.84
47366;BME280;33105;47.964;7.982;2022-12-07T10:15:56;96798.34;;;1.80;87.69
47366;BME280;33105;47.964;7.982;2022-12-07T10:19:33;96802.28;;;1.84;88.59
47366;BME280;33105;47.964;7.982;2022-12-07T10:22:35;96790.47;;;1.85;88.29
47366;BME280;33105;47.964;7.982;2022-12-07T10:25:46;96784.28;;;1.97;88.71
47366;BME280;33105;47.964;7.982;2022-12-07T10:29:04;96780.13;;;1.95;88.65
47366;BME280;33105;47.964;7.982;2022-12-07T10:35:28;96776.78;;;1.99;78.07
47366;BME280;33105;47.964;7.982;2022-12-07T10:38:44;96770.16;;;2.22;83.33
47366;BME280;33105;47.964;7.982;2022-12-07T10:42:30;96761.22;;;2.34;80.04
47366;BME280;33105;47.964;7.982;2022-12-07T11:24:31;96707.13;;;2.81;70.78
47366;BME280;33105;47.964;7.982;2022-12-07T11:28:06;96706.50;;;2.79;69.76
47366;BME280;33105;47.964;7.982;2022-12-07T11:31:24;96696.31;;;2.87;73.87
47366;BME280;33105;47.964;7.982;2022-12-07T11:47:52;96688.09;;;3.14;70.73
47366;BME280;33105;47.964;7.982;2022-12-07T11:51:54;96679.59;;;3.10;68.78
47366;BME280;33105;47.964;7.982;2022-12-07T11:55:32;96671.56;;;3.28;68.89
47366;BME280;33105;47.964;7.982;2022-12-07T12:09:12;96655.03;;;3.18;68.89
47366;BME280;33105;47.964;7.982;2022-12-07T12:42:05;96621.50;;;3.57;65.83
47366;BME280;33105;47.964;7.982;2022-12-07T13:19:54;96595.06;;;4.99;68.85
47366;BME280;33105;47.964;7.982;2022-12-07T13:22:58;96590.38;;;5.06;63.51
47366;BME280;33105;47.964;7.982;2022-12-07T13:29:20;96581.91;;;4.72;67.04
47366;BME280;33105;47.964;7.982;2022-12-07T13:32:28;96581.59;;;4.51;63.10
47366;BME280;33105;47.964;7.982;2022-12-07T13:35:36;96589.56;;;4.45;65.95
47366;BME280;33105;47.964;7.982;2022-12-07T13:52:49;96573.88;;;3.99;67.70
47366;BME280;33105;47.964;7.982;2022-12-07T14:45:22;96551.81;;;2.66;71.41
47366;BME280;33105;47.964;7.982;2022-12-07T14:48:25;96564.81;;;2.45;74.67
47366;BME280;33105;47.964;7.982;2022-12-07T14:51:29;96563.09;;;2.50;77.97
47366;BME280;33105;47.964;7.982;2022-12-07T14:54:51;96563.75;;;2.46;78.38
47366;BME280;33105;47.964;7.982;2022-12-07T14:58:17;96569.44;;;2.24;77.00
47366;BME280;33105;47.964;7.982;2022-12-07T15:01:21;96578.66;;;2.03;74.54
47366;BME280;33105;47.964;7.982;2022-12-07T15:04:23;96577.38;;;2.19;77.33
47366;BME280;33105;47.964;7.982;2022-12-07T15:07:24;96573.84;;;2.19;79.82
47366;BME280;33105;47.964;7.982;2022-12-07T15:10:37;96576.56;;;2.12;80.18
47366;BME280;33105;47.964;7.982;2022-12-07T15:13:40;96579.47;;;2.11;81.01
47366;BME280;33105;47.964;7.982;2022-12-07T15:17:21;96575.75;;;1.98;77.81
47366;BME280;33105;47.964;7.982;2022-12-07T15:20:31;96573.91;;;1.99;81.23
47366;BME280;33105;47.964;7.982;2022-12-07T15:23:48;96573.72;;;1.94;80.62
47366;BME280;33105;47.964;7.982;2022-12-07T15:26:50;96582.22;;;1.97;82.84
47366;BME280;33105;47.964;7.982;2022-12-07T15:29:57;96577.88;;;1.96;82.72
47366;BME280;33105;47.964;7.982;2022-12-07T15:32:59;96577.47;;;1.86;79.97
47366;BME280;33105;47.964;7.982;2022-12-07T15:36:01;96575.59;;;1.87;81.81
47366;BME280;33105;47.964;7.982;2022-12-07T15:43:10;96570.28;;;1.60;80.42
47366;BME280;33105;47.964;7.982;2022-12-07T15:46:36;96571.94;;;1.55;79.79
47366;BME280;33105;47.964;7.982;2022-12-07T15:49:38;96580.44;;;1.65;83.62
47366;BME280;33105;47.964;7.982;2022-12-07T15:52:39;96571.13;;;1.61;82.65
47366;BME280;33105;47.964;7.982;2022-12-07T15:55:47;96574.03;;;1.53;80.32
47366;BME280;33105;47.964;7.982;2022-12-07T15:58:51;96575.88;;;1.59;81.00
47366;BME280;33105;47.964;7.982;2022-12-07T16:05:19;96570.69;;;1.57;84.00
47366;BME280;33105;47.964;7.982;2022-12-07T16:08:20;96558.91;;;1.52;84.56
47366;BME280;33105;47.964;7.982;2022-12-07T16:11:24;96561.38;;;1.53;84.95
47366;BME280;33105;47.964;7.982;2022-12-07T16:14:32;96560.59;;;1.46;83.41
47366;BME280;33105;47.964;7.982;2022-12-07T16:17:34;96566.34;;;1.50;85.67
47366;BME280;33105;47.964;7.982;2022-12-07T16:20:35;96562.66;;;1.31;81.33
47366;BME280;33105;47.964;7.982;2022-12-07T16:23:37;96565.19;;;1.19;82.91
47366;BME280;33105;47.964;7.982;2022-12-07T16:26:46;96564.34;;;1.12;83.61
47366;BME280;33105;47.964;7.982;2022-12-07T16:29:57;96568.69;;;0.93;84.74
47366;BME280;33105;47.964;7.982;2022-12-07T16:32:59;96565.59;;;0.90;84.48
47366;BME280;33105;47.964;7.982;2022-12-07T16:36:11;96573.03;;;0.88;86.36
47366;BME280;33105;47.964;7.982;2022-12-07T16:39:29;96562.06;;;0.83;87.45
47366;BME280;33105;47.964;7.982;2022-12-07T16:42:32;96560.81;;;0.79;87.85
47366;BME280;33105;47.964;7.982;2022-12-07T16:46:19;96561.59;;;0.59;86.54
47366;BME280;33105;47.964;7.982;2022-12-07T16:49:28;96563.88;;;0.43;85.33
47366;BME280;33105;47.964;7.982;2022-12-07T16:52:32;96563.88;;;0.49;87.92
47366;BME280;33105;47.964;7.982;2022-12-07T16:55:38;96562.59;;;0.32;85.35
47366;BME280;33105;47.964;7.982;2022-12-07T16:58:42;96561.53;;;0.20;85.54
47366;BME280;33105;47.964;7.982;2022-12-07T17:01:44;96564.63;;;0.23;87.16
47366;BME280;33105;47.964;7.982;2022-12-07T17:04:45;96560.44;;;0.08;86.25
47366;BME280;33105;47.964;7.982;2022-12-07T17:07:47;96564.34;;;0.05;87.87
47366;BME280;33105;47.964;7.982;2022-12-07T17:10:48;96553.19;;;0.02;87.56
47366;BME280;33105;47.964;7.982;2022-12-07T17:13:50;96551.53;;;0.00;85.87
47366;BME280;33105;47.964;7.982;2022-12-07T17:17:11;96548.22;;;-0.02;86.23
47366;BME280;33105;47.964;7.982;2022-12-07T17:20:13;96554.16;;;-0.13;84.99
47366;BME280;33105;47.964;7.982;2022-12-07T17:23:15;96547.28;;;-0.22;86.42
47366;BME280;33105;47.964;7.982;2022-12-07T17:26:19;96547.25;;;-0.35;86.00
47366;BME280;33105;47.964;7.982;2022-12-07T17:29:20;96544.31;;;-0.40;85.92
47366;BME280;33105;47.964;7.982;2022-12-07T17:32:22;96541.59;;;-0.53;86.16
47366;BME280;33105;47.964;7.982;2022-12-07T17:35:23;96540.31;;;-0.57;85.61
47366;BME280;33105;47.964;7.982;2022-12-07T17:38:25;96538.81;;;-0.66;85.94
47366;BME280;33105;47.964;7.982;2022-12-07T17:41:27;96542.75;;;-0.62;85.31
47366;BME280;33105;47.964;7.982;2022-12-07T17:44:47;96547.16;;;-0.55;87.42
47366;BME280;33105;47.964;7.982;2022-12-07T17:47:48;96542.44;;;-0.46;88.60
47366;BME280;33105;47.964;7.982;2022-12-07T17:50:49;96538.53;;;-0.44;88.21
47366;BME280;33105;47.964;7.982;2022-12-07T17:54:10;96545.28;;;-0.54;88.52
47366;BME280;33105;47.964;7.982;2022-12-07T17:57:11;96546.06;;;-0.60;88.21
47366;BME280;33105;47.964;7.982;2022-12-07T18:00:13;96544.03;;;-0.58;89.53
47366;BME280;33105;47.964;7.982;2022-12-07T18:03:14;96539.19;;;-0.70;87.46
47366;BME280;33105;47.964;7.982;2022-12-07T18:06:16;96532.81;;;-0.69;88.65
47366;BME280;33105;47.964;7.982;2022-12-07T18:09:17;96537.53;;;-0.77;87.18
47366;BME280;33105;47.964;7.982;2022-12-07T18:12:18;96536.44;;;-0.83;87.88
47366;BME280;33105;47.964;7.982;2022-12-07T18:15:20;96536.97;;;-0.94;87.36
47366;BME280;33105;47.964;7.982;2022-12-07T18:18:21;96534.94;;;-0.92;86.78
47366;BME280;33105;47.964;7.982;2022-12-07T18:21:25;96535.03;;;-0.79;88.38
47366;BME280;33105;47.964;7.982;2022-12-07T18:24:27;96523.47;;;-0.79;89.11
47366;BME280;33105;47.964;7.982;2022-12-07T18:27:28;96530.88;;;-0.81;88.53
47366;BME280;33105;47.964;7.982;2022-12-07T18:30:30;96526.50;;;-0.89;88.93
47366;BME280;33105;47.964;7.982;2022-12-07T18:33:31;96530.13;;;-1.03;88.67
47366;BME280;33105;47.964;7.982;2022-12-07T18:36:32;96526.16;;;-1.07;89.88
47366;BME280;33105;47.964;7.982;2022-12-07T18:39:34;96529.03;;;-1.09;89.93
47366;BME280;33105;47.964;7.982;2022-12-07T18:42:35;96530.94;;;-1.02;90.16
47366;BME280;33105;47.964;7.982;2022-12-07T18:45:38;96533.63;;;-1.02;89.54
47366;BME280;33105;47.964;7.982;2022-12-07T18:48:39;96531.59;;;-1.00;88.17
47366;BME280;33105;47.964;7.982;2022-12-07T18:51:41;96538.16;;;-1.03;88.36
47366;BME280;33105;47.964;7.982;2022-12-07T18:54:42;96531.16;;;-1.04;90.09
47366;BME280;33105;47.964;7.982;2022-12-07T18:57:44;96527.19;;;-1.08;89.28
47366;BME280;33105;47.964;7.982;2022-12-07T19:00:45;96531.03;;;-1.17;88.20
47366;BME280;33105;47.964;7.982;2022-12-07T19:03:46;96529.81;;;-1.15;89.71
47366;BME280;33105;47.964;7.982;2022-12-07T19:06:50;96531.22;;;-1.19;89.57
47366;BME280;33105;47.964;7.982;2022-12-07T19:09:52;96531.19;;;-1.25;89.17
47366;BME280;33105;47.964;7.982;2022-12-07T19:12:53;96534.06;;;-1.27;89.26
47366;BME280;33105;47.964;7.982;2022-12-07T19:15:54;96524.56;;;-1.29;89.62
47366;BME280;33105;47.964;7.982;2022-12-07T19:18:56;96526.97;;;-1.34;89.92
47366;BME280;33105;47.964;7.982;2022-12-07T19:21:57;96516.19;;;-1.41;90.10
47366;BME280;33105;47.964;7.982;2022-12-07T19:24:59;96519.50;;;-1.39;90.69
47366;BME280;33105;47.964;7.982;2022-12-07T19:28:00;96516.13;;;-1.48;90.51
47366;BME280;33105;47.964;7.982;2022-12-07T19:31:08;96509.84;;;-1.61;89.60
47366;BME280;33105;47.964;7.982;2022-12-07T19:34:13;96508.88;;;-1.54;90.02
47366;BME280;33105;47.964;7.982;2022-12-07T19:37:17;96518.44;;;-1.45;90.43
47366;BME280;33105;47.964;7.982;2022-12-07T19:40:18;96516.53;;;-1.51;91.15
47366;BME280;33105;47.964;7.982;2022-12-07T19:43:19;96519.41;;;-1.52;91.54
47366;BME280;33105;47.964;7.982;2022-12-07T19:46:20;96516.41;;;-1.64;90.60
47366;BME280;33105;47.964;7.982;2022-12-07T19:49:23;96522.91;;;-1.73;89.73
47366;BME280;33105;47.964;7.982;2022-12-07T19:52:25;96522.31;;;-1.90;89.45
47366;BME280;33105;47.964;7.982;2022-12-07T19:55:26;96520.28;;;-1.88;90.19
47366;BME280;33105;47.964;7.982;2022-12-07T19:58:27;96515.31;;;-1.69;90.84
47366;BME280;33105;47.964;7.982;2022-12-07T20:01:29;96507.34;;;-1.84;89.58
47366;BME280;33105;47.964;7.982;2022-12-07T20:04:31;96504.03;;;-1.65;91.14
47366;BME280;33105;47.964;7.982;2022-12-07T20:07:35;96496.25;;;-1.60;90.60
47366;BME280;33105;47.964;7.982;2022-12-07T20:10:39;96500.88;;;-1.75;90.02
47366;BME280;33105;47.964;7.982;2022-12-07T20:13:40;96496.56;;;-1.69;90.97
47366;BME280;33105;47.964;7.982;2022-12-07T20:16:41;96493.84;;;-1.55;90.24
47366;BME280;33105;47.964;7.982;2022-12-07T20:19:45;96491.09;;;-1.61;89.49
47366;BME280;33105;47.964;7.982;2022-12-07T20:22:46;96487.72;;;-1.49;90.03
47366;BME280;33105;47.964;7.982;2022-12-07T20:25:48;96486.00;;;-1.56;89.27
47366;BME280;33105;47.964;7.982;2022-12-07T20:28:49;96475.47;;;-1.58;88.87
47366;BME280;33105;47.964;7.982;2022-12-07T20:31:52;96482.38;;;-1.42;89.18
47366;BME280;33105;47.964;7.982;2022-12-07T20:34:54;96476.56;;;-1.52;88.50
47366;BME280;33105;47.964;7.982;2022-12-07T20:37:55;96467.13;;;-1.42;88.93
47366;BME280;33105;47.964;7.982;2022-12-07T20:41:02;96467.25;;;-1.28;88.90
47366;BME280;33105;47.964;7.982;2022-12-07T20:44:03;96460.72;;;-1.19;88.53
47366;BME280;33105;47.964;7.982;2022-12-07T20:47:05;96464.72;;;-1.09;88.51